sensor_id;sensor_type;location;lat;lon;timestamp;pressure;altitude;pressure_sealevel;temperature;humidity
46836;BME280;32573;51.290;6.926;2024-01-07T00:00:48;100109.13;;;4.27;100.00
46836;BME280;32573;51.290;6.926;2024-01-07T00:03:17;100109.13;;;4.27;100.00
46836;BME280;32573;51.290;6.926;2024-01-07T00:05:45;100110.91;;;4.28;100.00
46836;BME280;32573;51.290;6.926;2024-01-07T00:08:15;100118.66;;;4.28;100.00
46836;BME280;32573;51.290;6.926;2024-01-07T00:10:43;100114.38;;;4.28;100.00
46836;BME280;32573;51.290;6.926;2024-01-07T00:13:11;100122.97;;;4.27;100.00
46836;BME280;32573;51.290;6.926;2024-01-07T00:15:40;100125.59;;;4.29;100.00
46836;BME280;32573;51.290;6.926;2024-01-07T00:18:08;100129.91;;;4.28;100.00
46836;BME280;32573;51.290;6.926;2024-01-07T00:20:36;100132.34;;;4.25;100.00
46836;BME280;32573;51.290;6.926;2024-01-07T00:23:08;100131.28;;;4.22;100.00
46836;BME280;32573;51.290;6.926;2024-01-07T00:25:37;100134.53;;;4.18;100.00
46836;BME280;32573;51.290;6.926;2024-01-07T00:28:05;100133.41;;;4.13;100.00
46836;BME280;32573;51.290;6.926;2024-01-07T00:30:34;100134.03;;;4.08;100.00
46836;BME280;32573;51.290;6.926;2024-01-07T00:33:03;100138.44;;;4.09;100.00
46836;BME280;32573;51.290;6.926;2024-01-07T00:35:32;100141.19;;;4.13;100.00
46836;BME280;32573;51.290;6.926;2024-01-07T00:38:00;100142.22;;;4.16;100.00
46836;BME280;32573;51.290;6.926;2024-01-07T00:40:28;100141.47;;;4.19;100.00
46836;BME280;32573;51.290;6.926;2024-01-07T00:42:58;100140.84;;;4.23;100.00
46836;BME280;32573;51.290;6.926;2024-01-07T00:45:26;100137.53;;;4.25;100.00
46836;BME280;32573;51.290;6.926;2024-01-07T00:47:54;100136.88;;;4.29;100.00
46836;BME280;32573;51.290;6.926;2024-01-07T00:50:23;100147.41;;;4.32;100.00
46836;BME280;32573;51.290;6.926;2024-01-07T00:52:51;100142.28;;;4.34;100.00
46836;BME280;32573;51.290;6.926;2024-01-07T00:55:19;100145.84;;;4.36;100.00
46836;BME280;32573;51.290;6.926;2024-01-07T00:57:49;100148.53;;;4.38;100.00
46836;BME280;32573;51.290;6.926;2024-01-07T01:00:20;100146.00;;;4.39;100.00
46836;BME280;32573;51.290;6.926;2024-01-07T01:02:49;100151.38;;;4.42;100.00
46836;BME280;32573;51.290;6.926;2024-01-07T01:05:17;100153.13;;;4.43;100.00
46836;BME280;32573;51.290;6.926;2024-01-07T01:07:45;100147.94;;;4.43;100.00
46836;BME280;32573;51.290;6.926;2024-01-07T01:10:13;100158.41;;;4.45;100.00
46836;BME280;32573;51.290;6.926;2024-01-07T01:12:44;100149.75;;;4.44;100.00
46836;BME280;32573;51.290;6.926;2024-01-07T01:15:12;100161.00;;;4.45;100.00
46836;BME280;32573;51.290;6.926;2024-01-07T01:17:44;100160.13;;;4.44;100.00
46836;BME280;32573;51.290;6.926;2024-01-07T01:20:13;100166.09;;;4.43;100.00
46836;BME280;32573;51.290;6.926;2024-01-07T01:22:41;100165.31;;;4.44;100.00
46836;BME280;32573;51.290;6.926;2024-01-07T01:25:11;100159.19;;;4.44;100.00
46836;BME280;32573;51.290;6.926;2024-01-07T01:27:39;100173.06;;;4.44;100.00
46836;BME280;32573;51.290;6.926;2024-01-07T01:30:08;100177.34;;;4.44;100.00
46836;BME280;32573;51.290;6.926;2024-01-07T01:32:38;100179.78;;;4.41;100.00
46836;BME280;32573;51.290;6.926;2024-01-07T01:35:09;100180.50;;;4.38;100.00
46836;BME280;32573;51.290;6.926;2024-01-07T01:42:33;100183.91;;;4.37;100.00
46836;BME280;32573;51.290;6.926;2024-01-07T01:45:02;100192.59;;;4.38;100.00
46836;BME280;32573;51.290;6.926;2024-01-07T01:47:31;100189.09;;;4.37;100.00
46836;BME280;32573;51.290;6.926;2024-01-07T01:49:59;100197.66;;;4.36;100.00
46836;BME280;32573;51.290;6.926;2024-01-07T01:52:29;100190.63;;;4.33;100.00
46836;BME280;32573;51.290;6.926;2024-01-07T01:54:58;100194.81;;;4.31;100.00
46836;BME280;32573;51.290;6.926;2024-01-07T01:57:32;100193.88;;;4.29;100.00
46836;BME280;32573;51.290;6.926;2024-01-07T02:00:02;100190.31;;;4.27;100.00
46836;BME280;32573;51.290;6.926;2024-01-07T02:02:32;100186.84;;;4.27;100.00
46836;BME280;32573;51.290;6.926;2024-01-07T02:05:02;100193.69;;;4.26;100.00
46836;BME280;32573;51.290;6.926;2024-01-07T02:07:32;100194.41;;;4.24;100.00
46836;BME280;32573;51.290;6.926;2024-01-07T02:10:02;100198.63;;;4.22;100.00
46836;BME280;32573;51.290;6.926;2024-01-07T02:12:31;100198.47;;;4.19;100.00
46836;BME280;32573;51.290;6.926;2024-01-07T02:14:59;100208.75;;;4.17;100.00
46836;BME280;32573;51.290;6.926;2024-01-07T02:17:27;100208.66;;;4.16;100.00
46836;BME280;32573;51.290;6.926;2024-01-07T02:19:56;100214.66;;;4.15;100.00
46836;BME280;32573;51.290;6.926;2024-01-07T02:22:23;100207.69;;;4.14;100.00
46836;BME280;32573;51.290;6.926;2024-01-07T02:24:53;100208.50;;;4.13;100.00
46836;BME280;32573;51.290;6.926;2024-01-07T02:27:21;100213.75;;;4.14;100.00
46836;BME280;32573;51.290;6.926;2024-01-07T02:29:49;100216.34;;;4.14;100.00
46836;BME280;32573;51.290;6.926;2024-01-07T02:32:17;100215.47;;;4.14;100.00
46836;BME280;32573;51.290;6.926;2024-01-07T02:34:46;100216.19;;;4.11;100.00
46836;BME280;32573;51.290;6.926;2024-01-07T02:37:14;100219.59;;;4.10;100.00
46836;BME280;32573;51.290;6.926;2024-01-07T02:39:42;100228.88;;;4.06;100.00
46836;BME280;32573;51.290;6.926;2024-01-07T02:42:23;100225.34;;;4.04;100.00
46836;BME280;32573;51.290;6.926;2024-01-07T02:44:51;100230.41;;;4.03;100.00
46836;BME280;32573;51.290;6.926;2024-01-07T02:47:20;100232.84;;;4.00;100.00
46836;BME280;32573;51.290;6.926;2024-01-07T02:49:48;100230.00;;;3.95;100.00
46836;BME280;32573;51.290;6.926;2024-01-07T02:52:16;100233.22;;;3.91;100.00
46836;BME280;32573;51.290;6.926;2024-01-07T02:54:45;100232.34;;;3.91;100.00
46836;BME280;32573;51.290;6.926;2024-01-07T02:57:13;100240.00;;;3.89;100.00
46836;BME280;32573;51.290;6.926;2024-01-07T02:59:42;100246.09;;;3.89;100.00
46836;BME280;32573;51.290;6.926;2024-01-07T03:02:11;100243.50;;;3.89;100.00
46836;BME280;32573;51.290;6.926;2024-01-07T03:04:39;100241.88;;;3.92;100.00
46836;BME280;32573;51.290;6.926;2024-01-07T03:07:07;100242.78;;;3.92;100.00
46836;BME280;32573;51.290;6.926;2024-01-07T03:09:36;100243.75;;;3.94;100.00
46836;BME280;32573;51.290;6.926;2024-01-07T03:12:04;100261.06;;;3.95;100.00
46836;BME280;32573;51.290;6.926;2024-01-07T03:14:32;100260.91;;;3.92;100.00
46836;BME280;32573;51.290;6.926;2024-01-07T03:17:02;100256.34;;;3.88;100.00
46836;BME280;32573;51.290;6.926;2024-01-07T03:19:30;100263.06;;;3.84;100.00
46836;BME280;32573;51.290;6.926;2024-01-07T03:21:59;100262.88;;;3.81;100.00
46836;BME280;32573;51.290;6.926;2024-01-07T03:24:27;100267.72;;;3.75;100.00
46836;BME280;32573;51.290;6.926;2024-01-07T03:26:55;100266.63;;;3.72;100.00
46836;BME280;32573;51.290;6.926;2024-01-07T03:29:23;100269.16;;;3.70;100.00
46836;BME280;32573;51.290;6.926;2024-01-07T03:31:51;100263.88;;;3.68;100.00
46836;BME280;32573;51.290;6.926;2024-01-07T03:34:21;100269.00;;;3.67;100.00
46836;BME280;32573;51.290;6.926;2024-01-07T03:36:49;100263.63;;;3.64;100.00
46836;BME280;32573;51.290;6.926;2024-01-07T03:39:18;100267.81;;;3.62;100.00
46836;BME280;32573;51.290;6.926;2024-01-07T03:41:46;100262.63;;;3.62;100.00
46836;BME280;32573;51.290;6.926;2024-01-07T03:44:14;100268.72;;;3.62;100.00
46836;BME280;32573;51.290;6.926;2024-01-07T03:46:42;100267.03;;;3.63;100.00
46836;BME280;32573;51.290;6.926;2024-01-07T03:49:11;100270.22;;;3.59;100.00
46836;BME280;32573;51.290;6.926;2024-01-07T03:51:40;100273.38;;;3.53;100.00
46836;BME280;32573;51.290;6.926;2024-01-07T03:54:09;100271.31;;;3.48;100.00
46836;BME280;32573;51.290;6.926;2024-01-07T03:56:37;100269.63;;;3.48;100.00
46836;BME280;32573;51.290;6.926;2024-01-07T03:59:05;100273.09;;;3.49;100.00
46836;BME280;32573;51.290;6.926;2024-01-07T04:01:34;100279.16;;;3.49;100.00
46836;BME280;32573;51.290;6.926;2024-01-07T04:04:02;100285.16;;;3.48;100.00
46836;BME280;32573;51.290;6.926;2024-01-07T04:06:31;100285.97;;;3.47;100.00
46836;BME280;32573;51.290;6.926;2024-01-07T04:09:00;100296.81;;;3.41;100.00
46836;BME280;32573;51.290;6.926;2024-01-07T04:11:30;100290.50;;;3.36;100.00
46836;BME280;32573;51.290;6.926;2024-01-07T04:13:58;100292.19;;;3.36;100.00
46836;BME280;32573;51.290;6.926;2024-01-07T04:16:26;100288.63;;;3.34;100.00
46836;BME280;32573;51.290;6.926;2024-01-07T04:18:54;100294.59;;;3.33;100.00
46836;BME280;32573;51.290;6.926;2024-01-07T04:21:23;100296.38;;;3.34;100.00
46836;BME280;32573;51.290;6.926;2024-01-07T04:23:51;100308.53;;;3.35;100.00
46836;BME280;32573;51.290;6.926;2024-01-07T04:26:20;100297.38;;;3.36;100.00
46836;BME280;32573;51.290;6.926;2024-01-07T04:28:48;100302.53;;;3.36;100.00
46836;BME280;32573;51.290;6.926;2024-01-07T04:31:17;100300.94;;;3.38;100.00
46836;BME280;32573;51.290;6.926;2024-01-07T04:33:45;100309.41;;;3.35;100.00
46836;BME280;32573;51.290;6.926;2024-01-07T04:36:14;100315.19;;;3.31;100.00
46836;BME280;32573;51.290;6.926;2024-01-07T04:38:42;100303.97;;;3.31;100.00
46836;BME280;32573;51.290;6.926;2024-01-07T04:41:10;100312.72;;;3.33;100.00
46836;BME280;32573;51.290;6.926;2024-01-07T04:43:42;100319.47;;;3.31;100.00
46836;BME280;32573;51.290;6.926;2024-01-07T04:46:11;100321.25;;;3.32;100.00
46836;BME280;32573;51.290;6.926;2024-01-07T04:48:39;100331.59;;;3.32;100.00
46836;BME280;32573;51.290;6.926;2024-01-07T04:51:07;100333.47;;;3.34;100.00
46836;BME280;32573;51.290;6.926;2024-01-07T04:53:36;100331.81;;;3.35;100.00
46836;BME280;32573;51.290;6.926;2024-01-07T04:56:04;100325.72;;;3.34;100.00
46836;BME280;32573;51.290;6.926;2024-01-07T04:58:33;100324.81;;;3.34;100.00
46836;BME280;32573;51.290;6.926;2024-01-07T05:01:02;100333.41;;;3.33;100.00
46836;BME280;32573;51.290;6.926;2024-01-07T05:03:31;100337.75;;;3.34;100.00
46836;BME280;32573;51.290;6.926;2024-01-07T05:05:59;100336.06;;;3.34;100.00
46836;BME280;32573;51.290;6.926;2024-01-07T05:08:29;100338.56;;;3.33;100.00
46836;BME280;32573;51.290;6.926;2024-01-07T05:10:57;100341.06;;;3.31;100.00
46836;BME280;32573;51.290;6.926;2024-01-07T05:13:25;100345.16;;;3.28;100.00
46836;BME280;32573;51.290;6.926;2024-01-07T05:15:53;100350.16;;;3.24;100.00
46836;BME280;32573;51.290;6.926;2024-01-07T05:18:23;100347.31;;;3.20;100.00
46836;BME280;32573;51.290;6.926;2024-01-07T05:20:52;100360.94;;;3.17;100.00
46836;BME280;32573;51.290;6.926;2024-01-07T05:23:20;100352.09;;;3.14;100.00
46836;BME280;32573;51.290;6.926;2024-01-07T05:25:48;100361.53;;;3.13;100.00
46836;BME280;32573;51.290;6.926;2024-01-07T05:28:17;100357.19;;;3.12;100.00
46836;BME280;32573;51.290;6.926;2024-01-07T05:30:47;100364.13;;;3.13;100.00
46836;BME280;32573;51.290;6.926;2024-01-07T05:33:15;100364.03;;;3.12;100.00
46836;BME280;32573;51.290;6.926;2024-01-07T05:35:45;100365.66;;;3.10;100.00
46836;BME280;32573;51.290;6.926;2024-01-07T05:38:13;100369.19;;;3.12;100.00
46836;BME280;32573;51.290;6.926;2024-01-07T05:40:41;100373.47;;;3.11;100.00
46836;BME280;32573;51.290;6.926;2024-01-07T05:43:09;100382.06;;;3.10;100.00
46836;BME280;32573;51.290;6.926;2024-01-07T05:45:38;100381.06;;;3.08;100.00
46836;BME280;32573;51.290;6.926;2024-01-07T05:48:06;100379.34;;;3.09;100.00
46836;BME280;32573;51.290;6.926;2024-01-07T05:50:35;100385.41;;;3.09;100.00
46836;BME280;32573;51.290;6.926;2024-01-07T05:53:04;100381.06;;;3.08;100.00
46836;BME280;32573;51.290;6.926;2024-01-07T05:55:33;100392.22;;;3.07;100.00
46836;BME280;32573;51.290;6.926;2024-01-07T05:58:01;100388.41;;;3.02;100.00
46836;BME280;32573;51.290;6.926;2024-01-07T06:00:29;100387.47;;;3.00;100.00
46836;BME280;32573;51.290;6.926;2024-01-07T06:02:58;100385.75;;;3.00;100.00
46836;BME280;32573;51.290;6.926;2024-01-07T06:05:26;100395.22;;;3.00;100.00
46836;BME280;32573;51.290;6.926;2024-01-07T06:07:54;100403.03;;;3.01;100.00
46836;BME280;32573;51.290;6.926;2024-01-07T06:10:24;100404.94;;;3.04;100.00
46836;BME280;32573;51.290;6.926;2024-01-07T06:12:52;100407.63;;;3.06;100.00
46836;BME280;32573;51.290;6.926;2024-01-07T06:15:20;100408.50;;;3.06;100.00
46836;BME280;32573;51.290;6.926;2024-01-07T06:17:49;100410.22;;;3.06;100.00
46836;BME280;32573;51.290;6.926;2024-01-07T06:20:17;100420.44;;;3.04;100.00
46836;BME280;32573;51.290;6.926;2024-01-07T06:22:45;100428.72;;;2.98;100.00
46836;BME280;32573;51.290;6.926;2024-01-07T06:25:14;100432.72;;;2.93;100.00
46836;BME280;32573;51.290;6.926;2024-01-07T06:27:43;100430.63;;;2.88;100.00
46836;BME280;32573;51.290;6.926;2024-01-07T06:30:12;100430.63;;;2.88;100.00
46836;BME280;32573;51.290;6.926;2024-01-07T06:32:41;100436.41;;;2.84;100.00
46836;BME280;32573;51.290;6.926;2024-01-07T06:35:09;100442.38;;;2.83;100.00
46836;BME280;32573;51.290;6.926;2024-01-07T06:37:37;100441.47;;;2.82;100.00
46836;BME280;32573;51.290;6.926;2024-01-07T06:40:06;100444.16;;;2.84;100.00
46836;BME280;32573;51.290;6.926;2024-01-07T06:42:35;100447.56;;;2.83;100.00
46836;BME280;32573;51.290;6.926;2024-01-07T06:45:06;100458.59;;;2.80;100.00
46836;BME280;32573;51.290;6.926;2024-01-07T06:47:34;100461.94;;;2.79;100.00
46836;BME280;32573;51.290;6.926;2024-01-07T06:50:02;100458.59;;;2.80;100.00
46836;BME280;32573;51.290;6.926;2024-01-07T06:52:31;100468.13;;;2.81;100.00
46836;BME280;32573;51.290;6.926;2024-01-07T06:54:59;100463.94;;;2.83;100.00
46836;BME280;32573;51.290;6.926;2024-01-07T06:57:28;100474.47;;;2.86;100.00
46836;BME280;32573;51.290;6.926;2024-01-07T06:59:56;100471.19;;;2.89;100.00
46836;BME280;32573;51.290;6.926;2024-01-07T07:02:25;100466.13;;;2.90;100.00
46836;BME280;32573;51.290;6.926;2024-01-07T07:04:54;100476.66;;;2.93;100.00
46836;BME280;32573;51.290;6.926;2024-01-07T07:07:22;100479.34;;;2.95;100.00
46836;BME280;32573;51.290;6.926;2024-01-07T07:09:50;100491.47;;;2.96;100.00
46836;BME280;32573;51.290;6.926;2024-01-07T07:12:19;100494.84;;;2.95;100.00
46836;BME280;32573;51.290;6.926;2024-01-07T07:14:48;100492.28;;;2.95;100.00
46836;BME280;32573;51.290;6.926;2024-01-07T07:17:16;100487.19;;;2.96;100.00
46836;BME280;32573;51.290;6.926;2024-01-07T07:19:46;100501.81;;;2.96;100.00
46836;BME280;32573;51.290;6.926;2024-01-07T07:22:14;100510.38;;;2.95;100.00
46836;BME280;32573;51.290;6.926;2024-01-07T07:24:42;100510.25;;;2.93;100.00
46836;BME280;32573;51.290;6.926;2024-01-07T07:27:11;100497.91;;;2.89;100.00
46836;BME280;32573;51.290;6.926;2024-01-07T07:29:39;100514.25;;;2.88;100.00
46836;BME280;32573;51.290;6.926;2024-01-07T07:32:07;100516.72;;;2.87;100.00
46836;BME280;32573;51.290;6.926;2024-01-07T07:34:35;100513.34;;;2.88;100.00
46836;BME280;32573;51.290;6.926;2024-01-07T07:37:05;100514.34;;;2.90;100.00
46836;BME280;32573;51.290;6.926;2024-01-07T07:39:33;100523.88;;;2.91;100.00
46836;BME280;32573;51.290;6.926;2024-01-07T07:42:02;100531.53;;;2.89;100.00
46836;BME280;32573;51.290;6.926;2024-01-07T07:44:30;100540.97;;;2.89;100.00
46836;BME280;32573;51.290;6.926;2024-01-07T07:46:59;100539.97;;;2.87;100.00
46836;BME280;32573;51.290;6.926;2024-01-07T07:49:27;100544.19;;;2.85;100.00
46836;BME280;32573;51.290;6.926;2024-01-07T07:51:56;100542.19;;;2.80;100.00
46836;BME280;32573;51.290;6.926;2024-01-07T07:54:26;100561.06;;;2.79;100.00
46836;BME280;32573;51.290;6.926;2024-01-07T07:56:54;100568.03;;;2.80;100.00
46836;BME280;32573;51.290;6.926;2024-01-07T07:59:22;100564.44;;;2.78;100.00
46836;BME280;32573;51.290;6.926;2024-01-07T08:01:50;100569.63;;;2.78;100.00
46836;BME280;32573;51.290;6.926;2024-01-07T08:04:19;100571.19;;;2.76;100.00
46836;BME280;32573;51.290;6.926;2024-01-07T08:06:47;100570.41;;;2.77;100.00
46836;BME280;32573;51.290;6.926;2024-01-07T08:09:15;100586.00;;;2.79;100.00
46836;BME280;32573;51.290;6.926;2024-01-07T08:11:45;100587.59;;;2.77;100.00
46836;BME280;32573;51.290;6.926;2024-01-07T08:14:13;100595.34;;;2.77;100.00
46836;BME280;32573;51.290;6.926;2024-01-07T08:16:41;100598.84;;;2.77;100.00
46836;BME280;32573;51.290;6.926;2024-01-07T08:19:09;100602.22;;;2.76;100.00
46836;BME280;32573;51.290;6.926;2024-01-07T08:21:38;100613.44;;;2.77;100.00
46836;BME280;32573;51.290;6.926;2024-01-07T08:24:06;100610.75;;;2.75;100.00
46836;BME280;32573;51.290;6.926;2024-01-07T08:26:34;100606.38;;;2.74;100.00
46836;BME280;32573;51.290;6.926;2024-01-07T08:29:04;100615.81;;;2.74;100.00
46836;BME280;32573;51.290;6.926;2024-01-07T08:31:32;100612.34;;;2.73;100.00
46836;BME280;32573;51.290;6.926;2024-01-07T08:34:01;100621.78;;;2.73;100.00
46836;BME280;32573;51.290;6.926;2024-01-07T08:36:29;100627.75;;;2.72;100.00
46836;BME280;32573;51.290;6.926;2024-01-07T08:38:57;100631.13;;;2.71;100.00
46836;BME280;32573;51.290;6.926;2024-01-07T08:41:26;100633.72;;;2.71;100.00
46836;BME280;32573;51.290;6.926;2024-01-07T08:43:54;100632.81;;;2.70;100.00
46836;BME280;32573;51.290;6.926;2024-01-07T08:46:24;100638.00;;;2.70;100.00
46836;BME280;32573;51.290;6.926;2024-01-07T08:48:52;100638.00;;;2.70;100.00
46836;BME280;32573;51.290;6.926;2024-01-07T08:51:20;100638.00;;;2.70;100.00
46836;BME280;32573;51.290;6.926;2024-01-07T08:53:48;100643.84;;;2.68;100.00
46836;BME280;32573;51.290;6.926;2024-01-07T08:56:17;100649.91;;;2.68;100.00
46836;BME280;32573;51.290;6.926;2024-01-07T08:58:45;100661.13;;;2.69;100.00
46836;BME280;32573;51.290;6.926;2024-01-07T09:01:13;100659.56;;;2.71;100.00
46836;BME280;32573;51.290;6.926;2024-01-07T09:03:43;100662.25;;;2.72;100.00
46836;BME280;32573;51.290;6.926;2024-01-07T09:06:11;100670.09;;;2.74;100.00
46836;BME280;32573;51.290;6.926;2024-01-07T09:08:40;100664.91;;;2.74;100.00
46836;BME280;32573;51.290;6.926;2024-01-07T09:11:09;100663.84;;;2.70;100.00
46836;BME280;32573;51.290;6.926;2024-01-07T09:13:38;100672.34;;;2.69;100.00
46836;BME280;32573;51.290;6.926;2024-01-07T09:16:10;100676.56;;;2.67;100.00
46836;BME280;32573;51.290;6.926;2024-01-07T09:18:39;100691.06;;;2.65;100.00
46836;BME280;32573;51.290;6.926;2024-01-07T09:21:09;100681.28;;;2.61;100.00
46836;BME280;32573;51.290;6.926;2024-01-07T09:23:37;100684.56;;;2.58;100.00
46836;BME280;32573;51.290;6.926;2024-01-07T09:26:06;100690.63;;;2.59;100.00
46836;BME280;32573;51.290;6.926;2024-01-07T09:28:34;100692.44;;;2.60;100.00
46836;BME280;32573;51.290;6.926;2024-01-07T09:31:02;100701.19;;;2.62;100.00
46836;BME280;32573;51.290;6.926;2024-01-07T09:33:31;100696.09;;;2.64;100.00
46836;BME280;32573;51.290;6.926;2024-01-07T09:36:00;100695.09;;;2.62;100.00
46836;BME280;32573;51.290;6.926;2024-01-07T09:38:42;100698.59;;;2.62;100.00
46836;BME280;32573;51.290;6.926;2024-01-07T09:41:11;100704.66;;;2.63;100.00
46836;BME280;32573;51.290;6.926;2024-01-07T09:43:39;100702.84;;;2.62;100.00
46836;BME280;32573;51.290;6.926;2024-01-07T09:46:07;100702.84;;;2.62;100.00
46836;BME280;32573;51.290;6.926;2024-01-07T09:48:36;100713.31;;;2.63;100.00
46836;BME280;32573;51.290;6.926;2024-01-07T09:51:06;100711.53;;;2.62;100.00
46836;BME280;32573;51.290;6.926;2024-01-07T09:53:39;100709.72;;;2.61;100.00
46836;BME280;32573;51.290;6.926;2024-01-07T09:56:12;100718.47;;;2.63;100.00
46836;BME280;32573;51.290;6.926;2024-01-07T09:58:46;100716.91;;;2.65;100.00
46836;BME280;32573;51.290;6.926;2024-01-07T10:01:17;100716.09;;;2.66;100.00
46836;BME280;32573;51.290;6.926;2024-01-07T10:03:46;100724.72;;;2.67;100.00
46836;BME280;32573;51.290;6.926;2024-01-07T10:06:17;100720.50;;;2.67;100.00
46836;BME280;32573;51.290;6.926;2024-01-07T10:08:46;100718.78;;;2.68;100.00
46836;BME280;32573;51.290;6.926;2024-01-07T10:11:16;100720.50;;;2.67;100.00
46836;BME280;32573;51.290;6.926;2024-01-07T10:13:45;100723.06;;;2.67;100.00
46836;BME280;32573;51.290;6.926;2024-01-07T10:16:14;100723.06;;;2.67;100.00
46836;BME280;32573;51.290;6.926;2024-01-07T10:18:43;100730.81;;;2.67;100.00
46836;BME280;32573;51.290;6.926;2024-01-07T10:21:11;100734.19;;;2.66;100.00
46836;BME280;32573;51.290;6.926;2024-01-07T10:23:39;100732.41;;;2.65;100.00
46836;BME280;32573;51.290;6.926;2024-01-07T10:26:08;100729.00;;;2.66;100.00
46836;BME280;32573;51.290;6.926;2024-01-07T10:28:51;100729.91;;;2.67;100.00
46836;BME280;32573;51.290;6.926;2024-01-07T10:31:19;100736.97;;;2.69;100.00
46836;BME280;32573;51.290;6.926;2024-01-07T10:33:48;100736.28;;;2.72;100.00
46836;BME280;32573;51.290;6.926;2024-01-07T10:36:18;100734.63;;;2.72;100.00
46836;BME280;32573;51.290;6.926;2024-01-07T10:38:49;100730.34;;;2.73;100.00
46836;BME280;32573;51.290;6.926;2024-01-07T10:41:18;100734.50;;;2.71;100.00
46836;BME280;32573;51.290;6.926;2024-01-07T10:43:47;100737.97;;;2.71;100.00
46836;BME280;32573;51.290;6.926;2024-01-07T10:46:17;100732.81;;;2.71;100.00
46836;BME280;32573;51.290;6.926;2024-01-07T10:48:55;100737.97;;;2.71;100.00
46836;BME280;32573;51.290;6.926;2024-01-07T10:51:24;100748.31;;;2.71;100.00
46836;BME280;32573;51.290;6.926;2024-01-07T10:53:56;100741.34;;;2.70;100.00
46836;BME280;32573;51.290;6.926;2024-01-07T10:56:28;100739.34;;;2.66;100.00
46836;BME280;32573;51.290;6.926;2024-01-07T10:58:58;100748.78;;;2.66;100.00
46836;BME280;32573;51.290;6.926;2024-01-07T11:01:29;100745.13;;;2.62;100.00
46836;BME280;32573;51.290;6.926;2024-01-07T11:04:03;100745.69;;;2.58;100.00
46836;BME280;32573;51.290;6.926;2024-01-07T11:06:36;100758.47;;;2.56;100.00
46836;BME280;32573;51.290;6.926;2024-01-07T11:09:17;100760.97;;;2.55;100.00
46836;BME280;32573;51.290;6.926;2024-01-07T11:11:47;100753.13;;;2.53;100.00
46836;BME280;32573;51.290;6.926;2024-01-07T11:14:34;100758.28;;;2.53;100.00
46836;BME280;32573;51.290;6.926;2024-01-07T11:17:04;100755.56;;;2.52;100.00
46836;BME280;32573;51.290;6.926;2024-01-07T11:19:32;100758.97;;;2.51;100.00
46836;BME280;32573;51.290;6.926;2024-01-07T11:22:22;100763.13;;;2.49;100.00
46836;BME280;32573;51.290;6.926;2024-01-07T11:24:51;100768.88;;;2.45;100.00
46836;BME280;32573;51.290;6.926;2024-01-07T11:27:21;100765.28;;;2.43;100.00
46836;BME280;32573;51.290;6.926;2024-01-07T11:29:53;100778.22;;;2.43;100.00
46836;BME280;32573;51.290;6.926;2024-01-07T11:32:28;100766.75;;;2.39;100.00
46836;BME280;32573;51.290;6.926;2024-01-07T11:34:57;100778.97;;;2.42;100.00
46836;BME280;32573;51.290;6.926;2024-01-07T11:37:27;100774.72;;;2.42;100.00
46836;BME280;32573;51.290;6.926;2024-01-07T11:39:56;100779.22;;;2.45;100.00
46836;BME280;32573;51.290;6.926;2024-01-07T11:42:25;100780.19;;;2.47;100.00
46836;BME280;32573;51.290;6.926;2024-01-07T11:44:54;100779.22;;;2.45;100.00
46836;BME280;32573;51.290;6.926;2024-01-07T11:47:23;100784.59;;;2.48;100.00
46836;BME280;32573;51.290;6.926;2024-01-07T11:49:53;100781.88;;;2.46;100.00
46836;BME280;32573;51.290;6.926;2024-01-07T11:52:21;100778.97;;;2.42;100.00
46836;BME280;32573;51.290;6.926;2024-01-07T11:54:50;100780.13;;;2.33;100.00
46836;BME280;32573;51.290;6.926;2024-01-07T11:57:18;100787.56;;;2.29;100.00
46836;BME280;32573;51.290;6.926;2024-01-07T11:59:48;100790.81;;;2.26;100.00
46836;BME280;32573;51.290;6.926;2024-01-07T12:02:16;100796.19;;;2.29;100.00
46836;BME280;32573;51.290;6.926;2024-01-07T12:04:44;100791.25;;;2.32;100.00
46836;BME280;32573;51.290;6.926;2024-01-07T12:07:14;100788.09;;;2.36;100.00
46836;BME280;32573;51.290;6.926;2024-01-07T12:09:43;100788.09;;;2.36;100.00
46836;BME280;32573;51.290;6.926;2024-01-07T12:12:11;100791.81;;;2.40;100.00
46836;BME280;32573;51.290;6.926;2024-01-07T12:14:40;100799.63;;;2.42;100.00
46836;BME280;32573;51.290;6.926;2024-01-07T12:17:08;100801.44;;;2.43;100.00
46836;BME280;32573;51.290;6.926;2024-01-07T12:19:40;100803.22;;;2.44;100.00
46836;BME280;32573;51.290;6.926;2024-01-07T12:22:09;100801.44;;;2.43;100.00
46836;BME280;32573;51.290;6.926;2024-01-07T12:24:38;100810.78;;;2.41;100.00
46836;BME280;32573;51.290;6.926;2024-01-07T12:27:07;100814.03;;;2.38;100.00
46836;BME280;32573;51.290;6.926;2024-01-07T12:29:35;100817.31;;;2.35;100.00
46836;BME280;32573;51.290;6.926;2024-01-07T12:32:05;100826.63;;;2.33;100.00
46836;BME280;32573;51.290;6.926;2024-01-07T12:34:36;100831.78;;;2.33;100.00
46836;BME280;32573;51.290;6.926;2024-01-07T12:37:05;100820.56;;;2.33;100.00
46836;BME280;32573;51.290;6.926;2024-01-07T12:39:33;100830.91;;;2.33;100.00
46836;BME280;32573;51.290;6.926;2024-01-07T12:42:03;100836.94;;;2.33;100.00
46836;BME280;32573;51.290;6.926;2024-01-07T12:44:31;100836.94;;;2.33;100.00
46836;BME280;32573;51.290;6.926;2024-01-07T12:46:59;100842.91;;;2.32;100.00
46836;BME280;32573;51.290;6.926;2024-01-07T12:49:27;100847.84;;;2.29;100.00
46836;BME280;32573;51.290;6.926;2024-01-07T12:51:56;100841.44;;;2.24;100.00
46836;BME280;32573;51.290;6.926;2024-01-07T12:54:24;100856.72;;;2.21;100.00
46836;BME280;32573;51.290;6.926;2024-01-07T12:56:53;100849.78;;;2.20;100.00
46836;BME280;32573;51.290;6.926;2024-01-07T12:59:22;100856.97;;;2.12;100.00
46836;BME280;32573;51.290;6.926;2024-01-07T13:01:50;100857.41;;;2.07;100.00
46836;BME280;32573;51.290;6.926;2024-01-07T13:04:19;100860.56;;;2.03;100.00